sensor_id;sensor_type;location;lat;lon;timestamp;P1;durP1;ratioP1;P2;durP2;ratioP2
47772;SDS011;33534;51.028;13.716;2024-03-06T00:01:30;162.43;;;111.35;;
47772;SDS011;33534;51.028;13.716;2024-03-06T00:03:56;162.13;;;109.78;;
47772;SDS011;33534;51.028;13.716;2024-03-06T00:06:22;159.05;;;107.85;;
47772;SDS011;33534;51.028;13.716;2024-03-06T00:08:47;158.55;;;108.40;;
47772;SDS011;33534;51.028;13.716;2024-03-06T00:11:13;164.15;;;108.13;;
47772;SDS011;33534;51.028;13.716;2024-03-06T00:13:38;157.82;;;106.15;;
47772;SDS011;33534;51.028;13.716;2024-03-06T00:16:04;159.55;;;105.15;;
47772;SDS011;33534;51.028;13.716;2024-03-06T00:18:30;155.90;;;105.28;;
47772;SDS011;33534;51.028;13.716;2024-03-06T00:20:55;156.73;;;104.57;;
47772;SDS011;33534;51.028;13.716;2024-03-06T00:23:21;155.20;;;102.97;;
47772;SDS011;33534;51.028;13.716;2024-03-06T00:25:46;150.40;;;102.28;;
47772;SDS011;33534;51.028;13.716;2024-03-06T00:28:12;150.27;;;101.65;;
47772;SDS011;33534;51.028;13.716;2024-03-06T00:30:38;157.40;;;104.15;;
47772;SDS011;33534;51.028;13.716;2024-03-06T00:33:03;151.30;;;98.68;;
47772;SDS011;33534;51.028;13.716;2024-03-06T00:35:32;149.75;;;99.20;;
47772;SDS011;33534;51.028;13.716;2024-03-06T00:37:57;150.35;;;97.82;;
47772;SDS011;33534;51.028;13.716;2024-03-06T00:40:27;144.75;;;97.90;;
47772;SDS011;33534;51.028;13.716;2024-03-06T00:42:55;144.68;;;98.18;;
47772;SDS011;33534;51.028;13.716;2024-03-06T00:45:22;147.45;;;99.57;;
47772;SDS011;33534;51.028;13.716;2024-03-06T00:47:48;144.30;;;95.70;;
47772;SDS011;33534;51.028;13.716;2024-03-06T00:50:13;136.32;;;93.90;;
47772;SDS011;33534;51.028;13.716;2024-03-06T00:52:41;140.48;;;95.65;;
47772;SDS011;33534;51.028;13.716;2024-03-06T00:55:07;140.57;;;95.68;;
47772;SDS011;33534;51.028;13.716;2024-03-06T00:57:34;136.23;;;93.93;;
47772;SDS011;33534;51.028;13.716;2024-03-06T01:00:00;138.93;;;94.88;;
47772;SDS011;33534;51.028;13.716;2024-03-06T01:02:25;134.77;;;92.10;;
47772;SDS011;33534;51.028;13.716;2024-03-06T01:04:51;134.90;;;93.07;;
47772;SDS011;33534;51.028;13.716;2024-03-06T01:07:16;139.57;;;94.53;;
47772;SDS011;33534;51.028;13.716;2024-03-06T01:09:42;135.13;;;92.30;;
47772;SDS011;33534;51.028;13.716;2024-03-06T01:12:07;132.23;;;90.07;;
47772;SDS011;33534;51.028;13.716;2024-03-06T01:14:33;132.50;;;89.57;;
47772;SDS011;33534;51.028;13.716;2024-03-06T01:16:59;134.35;;;90.28;;
47772;SDS011;33534;51.028;13.716;2024-03-06T01:19:24;129.70;;;87.18;;
47772;SDS011;33534;51.028;13.716;2024-03-06T01:21:50;131.55;;;90.03;;
47772;SDS011;33534;51.028;13.716;2024-03-06T01:24:15;126.75;;;86.13;;
47772;SDS011;33534;51.028;13.716;2024-03-06T01:26:41;125.90;;;85.30;;
47772;SDS011;33534;51.028;13.716;2024-03-06T01:29:06;125.93;;;88.60;;
47772;SDS011;33534;51.028;13.716;2024-03-06T01:31:32;124.72;;;85.53;;
47772;SDS011;33534;51.028;13.716;2024-03-06T01:33:58;127.35;;;85.70;;
47772;SDS011;33534;51.028;13.716;2024-03-06T01:36:23;123.07;;;83.53;;
47772;SDS011;33534;51.028;13.716;2024-03-06T01:38:49;117.68;;;81.30;;
47772;SDS011;33534;51.028;13.716;2024-03-06T01:41:15;122.85;;;83.85;;
47772;SDS011;33534;51.028;13.716;2024-03-06T01:43:40;118.85;;;81.55;;
47772;SDS011;33534;51.028;13.716;2024-03-06T01:46:06;119.63;;;80.22;;
47772;SDS011;33534;51.028;13.716;2024-03-06T01:48:32;119.35;;;80.20;;
47772;SDS011;33534;51.028;13.716;2024-03-06T01:50:59;121.30;;;80.85;;
47772;SDS011;33534;51.028;13.716;2024-03-06T01:53:28;116.80;;;78.72;;
47772;SDS011;33534;51.028;13.716;2024-03-06T01:55:55;116.55;;;80.15;;
47772;SDS011;33534;51.028;13.716;2024-03-06T01:58:21;114.60;;;77.80;;
47772;SDS011;33534;51.028;13.716;2024-03-06T02:00:49;112.72;;;77.05;;
47772;SDS011;33534;51.028;13.716;2024-03-06T02:03:15;114.88;;;76.00;;
47772;SDS011;33534;51.028;13.716;2024-03-06T02:05:41;115.53;;;77.55;;
47772;SDS011;33534;51.028;13.716;2024-03-06T02:08:08;110.57;;;74.93;;
47772;SDS011;33534;51.028;13.716;2024-03-06T02:10:34;108.00;;;74.45;;
47772;SDS011;33534;51.028;13.716;2024-03-06T02:13:00;111.05;;;73.43;;
47772;SDS011;33534;51.028;13.716;2024-03-06T02:15:25;108.78;;;73.60;;
47772;SDS011;33534;51.028;13.716;2024-03-06T02:17:51;104.55;;;70.80;;
47772;SDS011;33534;51.028;13.716;2024-03-06T02:20:24;104.53;;;71.80;;
47772;SDS011;33534;51.028;13.716;2024-03-06T02:22:50;104.68;;;72.97;;
47772;SDS011;33534;51.028;13.716;2024-03-06T02:25:16;105.45;;;72.28;;
47772;SDS011;33534;51.028;13.716;2024-03-06T02:27:42;105.25;;;70.93;;
47772;SDS011;33534;51.028;13.716;2024-03-06T02:30:09;103.15;;;69.72;;
47772;SDS011;33534;51.028;13.716;2024-03-06T02:32:36;104.20;;;69.63;;
47772;SDS011;33534;51.028;13.716;2024-03-06T02:35:02;100.32;;;69.45;;
47772;SDS011;33534;51.028;13.716;2024-03-06T02:37:33;102.47;;;69.22;;
47772;SDS011;33534;51.028;13.716;2024-03-06T02:39:59;95.38;;;66.38;;
47772;SDS011;33534;51.028;13.716;2024-03-06T02:42:27;98.93;;;68.03;;
47772;SDS011;33534;51.028;13.716;2024-03-06T02:44:53;99.13;;;66.60;;
47772;SDS011;33534;51.028;13.716;2024-03-06T02:47:18;101.20;;;66.97;;
47772;SDS011;33534;51.028;13.716;2024-03-06T02:49:44;98.07;;;65.32;;
47772;SDS011;33534;51.028;13.716;2024-03-06T02:52:10;93.10;;;63.00;;
47772;SDS011;33534;51.028;13.716;2024-03-06T02:54:35;96.35;;;64.53;;
47772;SDS011;33534;51.028;13.716;2024-03-06T02:57:01;105.18;;;64.28;;
47772;SDS011;33534;51.028;13.716;2024-03-06T02:59:27;97.53;;;64.90;;
47772;SDS011;33534;51.028;13.716;2024-03-06T03:01:52;91.80;;;62.67;;
47772;SDS011;33534;51.028;13.716;2024-03-06T03:04:18;101.47;;;62.80;;
47772;SDS011;33534;51.028;13.716;2024-03-06T03:06:44;93.07;;;61.33;;
47772;SDS011;33534;51.028;13.716;2024-03-06T03:09:09;95.80;;;60.97;;
47772;SDS011;33534;51.028;13.716;2024-03-06T03:11:37;87.05;;;57.47;;
47772;SDS011;33534;51.028;13.716;2024-03-06T03:14:03;89.63;;;59.67;;
47772;SDS011;33534;51.028;13.716;2024-03-06T03:16:28;83.50;;;57.28;;
47772;SDS011;33534;51.028;13.716;2024-03-06T03:18:55;89.80;;;59.42;;
47772;SDS011;33534;51.028;13.716;2024-03-06T03:21:20;89.38;;;58.42;;
47772;SDS011;33534;51.028;13.716;2024-03-06T03:23:47;86.50;;;58.65;;
47772;SDS011;33534;51.028;13.716;2024-03-06T03:26:13;80.72;;;56.08;;
47772;SDS011;33534;51.028;13.716;2024-03-06T03:28:39;90.07;;;58.70;;
47772;SDS011;33534;51.028;13.716;2024-03-06T03:31:06;86.80;;;56.92;;
47772;SDS011;33534;51.028;13.716;2024-03-06T03:33:33;80.03;;;53.35;;
47772;SDS011;33534;51.028;13.716;2024-03-06T03:36:03;84.03;;;55.80;;
47772;SDS011;33534;51.028;13.716;2024-03-06T03:38:30;83.07;;;54.92;;
47772;SDS011;33534;51.028;13.716;2024-03-06T03:40:56;81.53;;;53.17;;
47772;SDS011;33534;51.028;13.716;2024-03-06T03:43:22;81.05;;;53.95;;
47772;SDS011;33534;51.028;13.716;2024-03-06T03:45:48;78.57;;;52.53;;
47772;SDS011;33534;51.028;13.716;2024-03-06T03:48:14;81.10;;;52.60;;
47772;SDS011;33534;51.028;13.716;2024-03-06T03:50:40;74.30;;;50.33;;
47772;SDS011;33534;51.028;13.716;2024-03-06T03:53:05;78.15;;;53.35;;
47772;SDS011;33534;51.028;13.716;2024-03-06T03:55:31;73.13;;;50.75;;
47772;SDS011;33534;51.028;13.716;2024-03-06T03:57:56;74.05;;;49.05;;
47772;SDS011;33534;51.028;13.716;2024-03-06T04:00:22;74.07;;;49.80;;
47772;SDS011;33534;51.028;13.716;2024-03-06T04:02:48;77.88;;;51.70;;
47772;SDS011;33534;51.028;13.716;2024-03-06T04:05:13;69.38;;;49.17;;
47772;SDS011;33534;51.028;13.716;2024-03-06T04:07:39;76.28;;;48.53;;
47772;SDS011;33534;51.028;13.716;2024-03-06T04:10:06;71.13;;;48.80;;
47772;SDS011;33534;51.028;13.716;2024-03-06T04:12:32;71.05;;;47.78;;
47772;SDS011;33534;51.028;13.716;2024-03-06T04:14:57;70.30;;;48.22;;
47772;SDS011;33534;51.028;13.716;2024-03-06T04:17:23;69.32;;;46.95;;
47772;SDS011;33534;51.028;13.716;2024-03-06T04:19:50;73.47;;;48.50;;
47772;SDS011;33534;51.028;13.716;2024-03-06T04:22:18;69.40;;;46.53;;
47772;SDS011;33534;51.028;13.716;2024-03-06T04:24:44;75.72;;;47.75;;
47772;SDS011;33534;51.028;13.716;2024-03-06T04:27:10;68.85;;;45.70;;
47772;SDS011;33534;51.028;13.716;2024-03-06T04:29:35;64.80;;;45.38;;
47772;SDS011;33534;51.028;13.716;2024-03-06T04:32:01;71.20;;;46.08;;
47772;SDS011;33534;51.028;13.716;2024-03-06T04:34:27;63.10;;;43.55;;
47772;SDS011;33534;51.028;13.716;2024-03-06T04:36:52;68.20;;;45.88;;
47772;SDS011;33534;51.028;13.716;2024-03-06T04:39:18;68.28;;;46.03;;
47772;SDS011;33534;51.028;13.716;2024-03-06T04:41:43;63.65;;;42.88;;
47772;SDS011;33534;51.028;13.716;2024-03-06T04:44:09;67.13;;;43.53;;
47772;SDS011;33534;51.028;13.716;2024-03-06T04:46:35;65.55;;;43.10;;
47772;SDS011;33534;51.028;13.716;2024-03-06T04:49:00;61.45;;;41.65;;
47772;SDS011;33534;51.028;13.716;2024-03-06T04:51:26;64.65;;;42.38;;
47772;SDS011;33534;51.028;13.716;2024-03-06T04:53:51;60.30;;;41.63;;
47772;SDS011;33534;51.028;13.716;2024-03-06T04:56:17;64.65;;;42.45;;
47772;SDS011;33534;51.028;13.716;2024-03-06T04:58:44;62.78;;;40.35;;
47772;SDS011;33534;51.028;13.716;2024-03-06T05:01:11;57.97;;;39.88;;
47772;SDS011;33534;51.028;13.716;2024-03-06T05:03:37;61.80;;;42.08;;
47772;SDS011;33534;51.028;13.716;2024-03-06T05:06:04;62.03;;;41.47;;
47772;SDS011;33534;51.028;13.716;2024-03-06T05:08:30;58.30;;;39.95;;
47772;SDS011;33534;51.028;13.716;2024-03-06T05:10:56;56.80;;;38.05;;
47772;SDS011;33534;51.028;13.716;2024-03-06T05:13:24;56.42;;;38.33;;
47772;SDS011;33534;51.028;13.716;2024-03-06T05:15:49;56.00;;;37.85;;
47772;SDS011;33534;51.028;13.716;2024-03-06T05:18:15;56.85;;;38.63;;
47772;SDS011;33534;51.028;13.716;2024-03-06T05:20:41;56.58;;;38.80;;
47772;SDS011;33534;51.028;13.716;2024-03-06T05:23:06;60.28;;;36.40;;
47772;SDS011;33534;51.028;13.716;2024-03-06T05:25:32;50.65;;;35.75;;
47772;SDS011;33534;51.028;13.716;2024-03-06T05:27:58;55.03;;;37.22;;
47772;SDS011;33534;51.028;13.716;2024-03-06T05:30:23;58.47;;;37.80;;
47772;SDS011;33534;51.028;13.716;2024-03-06T05:32:49;57.42;;;38.40;;
47772;SDS011;33534;51.028;13.716;2024-03-06T05:35:15;58.85;;;37.25;;
47772;SDS011;33534;51.028;13.716;2024-03-06T05:37:41;56.25;;;37.15;;
47772;SDS011;33534;51.028;13.716;2024-03-06T05:40:07;51.20;;;34.13;;
47772;SDS011;33534;51.028;13.716;2024-03-06T05:42:34;51.63;;;34.75;;
47772;SDS011;33534;51.028;13.716;2024-03-06T05:44:59;54.42;;;35.60;;
47772;SDS011;33534;51.028;13.716;2024-03-06T05:47:35;59.10;;;35.30;;
47772;SDS011;33534;51.028;13.716;2024-03-06T05:50:02;48.55;;;33.35;;
47772;SDS011;33534;51.028;13.716;2024-03-06T05:52:30;50.78;;;33.80;;
47772;SDS011;33534;51.028;13.716;2024-03-06T05:54:56;48.97;;;34.30;;
47772;SDS011;33534;51.028;13.716;2024-03-06T05:57:21;50.55;;;33.63;;
47772;SDS011;33534;51.028;13.716;2024-03-06T05:59:47;52.78;;;33.78;;
47772;SDS011;33534;51.028;13.716;2024-03-06T06:02:13;47.97;;;33.28;;
47772;SDS011;33534;51.028;13.716;2024-03-06T06:04:41;48.85;;;32.95;;
47772;SDS011;33534;51.028;13.716;2024-03-06T06:07:07;49.10;;;31.90;;
47772;SDS011;33534;51.028;13.716;2024-03-06T06:09:33;46.55;;;31.40;;
47772;SDS011;33534;51.028;13.716;2024-03-06T06:11:58;46.35;;;32.63;;
47772;SDS011;33534;51.028;13.716;2024-03-06T06:14:24;47.67;;;30.33;;
47772;SDS011;33534;51.028;13.716;2024-03-06T06:16:52;53.78;;;32.75;;
47772;SDS011;33534;51.028;13.716;2024-03-06T06:19:18;48.95;;;30.85;;
47772;SDS011;33534;51.028;13.716;2024-03-06T06:21:43;73.25;;;32.00;;
47772;SDS011;33534;51.028;13.716;2024-03-06T06:24:09;51.20;;;31.75;;
47772;SDS011;33534;51.028;13.716;2024-03-06T06:26:34;49.08;;;28.77;;
47772;SDS011;33534;51.028;13.716;2024-03-06T06:29:00;50.88;;;30.23;;
47772;SDS011;33534;51.028;13.716;2024-03-06T06:31:26;46.63;;;29.20;;
47772;SDS011;33534;51.028;13.716;2024-03-06T06:33:52;41.63;;;27.98;;
47772;SDS011;33534;51.028;13.716;2024-03-06T06:36:18;46.95;;;28.65;;
47772;SDS011;33534;51.028;13.716;2024-03-06T06:38:44;52.33;;;30.02;;
47772;SDS011;33534;51.028;13.716;2024-03-06T06:41:11;47.65;;;27.83;;
47772;SDS011;33534;51.028;13.716;2024-03-06T06:43:36;45.75;;;28.17;;
47772;SDS011;33534;51.028;13.716;2024-03-06T06:46:02;47.08;;;28.60;;
47772;SDS011;33534;51.028;13.716;2024-03-06T06:48:30;48.97;;;27.80;;
47772;SDS011;33534;51.028;13.716;2024-03-06T06:50:55;47.20;;;27.10;;
47772;SDS011;33534;51.028;13.716;2024-03-06T06:53:22;41.47;;;26.88;;
47772;SDS011;33534;51.028;13.716;2024-03-06T06:55:47;41.15;;;25.95;;
47772;SDS011;33534;51.028;13.716;2024-03-06T06:58:13;40.55;;;25.95;;
47772;SDS011;33534;51.028;13.716;2024-03-06T07:00:38;38.90;;;25.27;;
47772;SDS011;33534;51.028;13.716;2024-03-06T07:03:04;39.97;;;25.00;;
47772;SDS011;33534;51.028;13.716;2024-03-06T07:05:30;43.65;;;26.45;;
47772;SDS011;33534;51.028;13.716;2024-03-06T07:07:55;44.22;;;24.45;;
47772;SDS011;33534;51.028;13.716;2024-03-06T07:10:21;38.88;;;25.90;;
47772;SDS011;33534;51.028;13.716;2024-03-06T07:12:47;41.05;;;24.63;;
47772;SDS011;33534;51.028;13.716;2024-03-06T07:15:13;40.40;;;24.73;;
47772;SDS011;33534;51.028;13.716;2024-03-06T07:17:38;39.38;;;24.38;;
47772;SDS011;33534;51.028;13.716;2024-03-06T07:20:04;37.03;;;24.33;;
47772;SDS011;33534;51.028;13.716;2024-03-06T07:22:31;34.58;;;25.98;;
47772;SDS011;33534;51.028;13.716;2024-03-06T07:24:58;33.75;;;24.95;;
47772;SDS011;33534;51.028;13.716;2024-03-06T07:27:25;35.25;;;27.40;;
47772;SDS011;33534;51.028;13.716;2024-03-06T07:29:50;49.53;;;28.00;;
47772;SDS011;33534;51.028;13.716;2024-03-06T07:32:16;39.55;;;28.23;;
47772;SDS011;33534;51.028;13.716;2024-03-06T07:34:41;42.65;;;26.92;;
47772;SDS011;33534;51.028;13.716;2024-03-06T07:37:07;39.00;;;27.10;;
47772;SDS011;33534;51.028;13.716;2024-03-06T07:39:33;40.35;;;26.00;;
47772;SDS011;33534;51.028;13.716;2024-03-06T07:41:59;37.88;;;25.70;;
47772;SDS011;33534;51.028;13.716;2024-03-06T07:44:25;36.10;;;24.83;;
47772;SDS011;33534;51.028;13.716;2024-03-06T07:46:51;29.63;;;22.55;;
47772;SDS011;33534;51.028;13.716;2024-03-06T07:49:18;27.90;;;21.33;;
47772;SDS011;33534;51.028;13.716;2024-03-06T07:51:44;31.80;;;21.90;;
47772;SDS011;33534;51.028;13.716;2024-03-06T07:54:09;31.85;;;21.05;;
47772;SDS011;33534;51.028;13.716;2024-03-06T07:56:35;28.75;;;18.92;;
47772;SDS011;33534;51.028;13.716;2024-03-06T07:59:01;27.45;;;19.02;;
47772;SDS011;33534;51.028;13.716;2024-03-06T08:01:26;26.08;;;17.92;;
47772;SDS011;33534;51.028;13.716;2024-03-06T08:03:56;26.75;;;16.83;;
47772;SDS011;33534;51.028;13.716;2024-03-06T08:06:22;29.88;;;17.17;;
47772;SDS011;33534;51.028;13.716;2024-03-06T08:08:48;29.23;;;16.25;;
47772;SDS011;33534;51.028;13.716;2024-03-06T08:11:14;21.75;;;14.55;;
47772;SDS011;33534;51.028;13.716;2024-03-06T08:13:40;23.50;;;15.73;;
47772;SDS011;33534;51.028;13.716;2024-03-06T08:16:06;23.80;;;15.35;;
47772;SDS011;33534;51.028;13.716;2024-03-06T08:18:33;22.35;;;14.40;;
47772;SDS011;33534;51.028;13.716;2024-03-06T08:20:59;24.48;;;14.50;;
47772;SDS011;33534;51.028;13.716;2024-03-06T08:23:25;19.70;;;14.40;;
47772;SDS011;33534;51.028;13.716;2024-03-06T08:25:51;17.27;;;13.45;;
47772;SDS011;33534;51.028;13.716;2024-03-06T08:28:20;17.33;;;13.48;;
47772;SDS011;33534;51.028;13.716;2024-03-06T08:30:46;19.52;;;13.45;;
47772;SDS011;33534;51.028;13.716;2024-03-06T08:33:11;18.10;;;11.93;;
47772;SDS011;33534;51.028;13.716;2024-03-06T08:35:37;14.43;;;11.75;;
47772;SDS011;33534;51.028;13.716;2024-03-06T08:38:04;17.10;;;12.75;;
47772;SDS011;33534;51.028;13.716;2024-03-06T08:40:31;17.73;;;11.40;;
47772;SDS011;33534;51.028;13.716;2024-03-06T08:42:57;17.15;;;12.00;;
47772;SDS011;33534;51.028;13.716;2024-03-06T08:45:23;23.52;;;11.80;;
47772;SDS011;33534;51.028;13.716;2024-03-06T08:47:49;16.95;;;11.63;;
47772;SDS011;33534;51.028;13.716;2024-03-06T08:50:15;18.23;;;11.55;;
47772;SDS011;33534;51.028;13.716;2024-03-06T08:52:41;15.25;;;10.90;;
47772;SDS011;33534;51.028;13.716;2024-03-06T08:55:07;16.00;;;11.55;;
47772;SDS011;33534;51.028;13.716;2024-03-06T08:57:33;17.52;;;10.77;;
47772;SDS011;33534;51.028;13.716;2024-03-06T09:00:00;16.90;;;10.82;;
47772;SDS011;33534;51.028;13.716;2024-03-06T09:02:26;12.73;;;10.02;;
47772;SDS011;33534;51.028;13.716;2024-03-06T09:04:52;12.30;;;10.48;;
47772;SDS011;33534;51.028;13.716;2024-03-06T09:07:18;14.90;;;11.05;;
47772;SDS011;33534;51.028;13.716;2024-03-06T09:09:45;14.15;;;10.50;;
47772;SDS011;33534;51.028;13.716;2024-03-06T09:12:11;13.38;;;10.13;;
47772;SDS011;33534;51.028;13.716;2024-03-06T09:14:37;15.35;;;11.20;;
47772;SDS011;33534;51.028;13.716;2024-03-06T09:17:03;13.57;;;9.63;;
47772;SDS011;33534;51.028;13.716;2024-03-06T09:19:30;13.80;;;9.75;;
47772;SDS011;33534;51.028;13.716;2024-03-06T09:21:55;14.43;;;10.20;;
47772;SDS011;33534;51.028;13.716;2024-03-06T09:24:22;12.90;;;10.00;;
47772;SDS011;33534;51.028;13.716;2024-03-06T09:26:48;12.30;;;9.82;;
47772;SDS011;33534;51.028;13.716;2024-03-06T09:29:14;13.73;;;10.73;;
47772;SDS011;33534;51.028;13.716;2024-03-06T09:31:40;16.17;;;9.90;;
47772;SDS011;33534;51.028;13.716;2024-03-06T09:34:06;14.15;;;9.52;;
47772;SDS011;33534;51.028;13.716;2024-03-06T09:36:32;11.00;;;9.40;;
47772;SDS011;33534;51.028;13.716;2024-03-06T09:38:58;13.38;;;9.50;;
47772;SDS011;33534;51.028;13.716;2024-03-06T09:41:24;14.20;;;8.70;;
47772;SDS011;33534;51.028;13.716;2024-03-06T09:43:50;10.30;;;8.65;;
47772;SDS011;33534;51.028;13.716;2024-03-06T09:46:16;10.15;;;9.07;;
47772;SDS011;33534;51.028;13.716;2024-03-06T09:48:46;10.68;;;9.27;;
47772;SDS011;33534;51.028;13.716;2024-03-06T09:51:13;10.82;;;9.05;;
47772;SDS011;33534;51.028;13.716;2024-03-06T09:53:40;11.98;;;8.82;;
47772;SDS011;33534;51.028;13.716;2024-03-06T09:56:07;13.15;;;9.38;;
47772;SDS011;33534;51.028;13.716;2024-03-06T09:58:33;11.52;;;9.35;;
47772;SDS011;33534;51.028;13.716;2024-03-06T10:01:00;12.13;;;8.48;;
47772;SDS011;33534;51.028;13.716;2024-03-06T10:03:28;11.55;;;8.35;;
47772;SDS011;33534;51.028;13.716;2024-03-06T10:05:54;9.95;;;8.68;;
47772;SDS011;33534;51.028;13.716;2024-03-06T10:08:20;11.32;;;8.50;;
47772;SDS011;33534;51.028;13.716;2024-03-06T10:10:49;9.90;;;8.30;;
47772;SDS011;33534;51.028;13.716;2024-03-06T10:13:16;11.35;;;9.15;;
47772;SDS011;33534;51.028;13.716;2024-03-06T10:15:42;11.13;;;8.85;;
47772;SDS011;33534;51.028;13.716;2024-03-06T10:18:28;12.43;;;8.93;;
47772;SDS011;33534;51.028;13.716;2024-03-06T10:20:56;11.63;;;8.48;;
47772;SDS011;33534;51.028;13.716;2024-03-06T10:23:22;9.32;;;8.40;;
47772;SDS011;33534;51.028;13.716;2024-03-06T10:25:48;10.25;;;8.20;;
47772;SDS011;33534;51.028;13.716;2024-03-06T10:28:21;10.52;;;8.45;;
47772;SDS011;33534;51.028;13.716;2024-03-06T10:30:48;10.38;;;8.63;;
47772;SDS011;33534;51.028;13.716;2024-03-06T10:33:15;11.43;;;8.35;;
47772;SDS011;33534;51.028;13.716;2024-03-06T10:35:45;12.93;;;9.02;;
47772;SDS011;33534;51.028;13.716;2024-03-06T10:38:15;9.52;;;8.45;;
47772;SDS011;33534;51.028;13.716;2024-03-06T10:40:42;10.88;;;8.20;;
47772;SDS011;33534;51.028;13.716;2024-03-06T10:43:09;10.98;;;8.18;;
47772;SDS011;33534;51.028;13.716;2024-03-06T10:45:51;10.98;;;8.90;;
47772;SDS011;33534;51.028;13.716;2024-03-06T10:48:22;8.77;;;7.88;;
47772;SDS011;33534;51.028;13.716;2024-03-06T10:50:50;10.00;;;7.95;;
47772;SDS011;33534;51.028;13.716;2024-03-06T10:53:17;9.50;;;7.88;;
47772;SDS011;33534;51.028;13.716;2024-03-06T10:55:43;10.45;;;8.27;;
47772;SDS011;33534;51.028;13.716;2024-03-06T10:58:09;13.15;;;8.30;;
47772;SDS011;33534;51.028;13.716;2024-03-06T11:00:39;10.13;;;8.02;;
47772;SDS011;33534;51.028;13.716;2024-03-06T11:03:06;16.33;;;8.63;;
47772;SDS011;33534;51.028;13.716;2024-03-06T11:05:36;9.10;;;7.72;;
47772;SDS011;33534;51.028;13.716;2024-03-06T11:08:08;10.18;;;8.05;;
47772;SDS011;33534;51.028;13.716;2024-03-06T11:10:36;8.40;;;7.45;;
47772;SDS011;33534;51.028;13.716;2024-03-06T11:13:03;11.55;;;8.18;;
47772;SDS011;33534;51.028;13.716;2024-03-06T11:15:33;8.63;;;7.67;;
47772;SDS011;33534;51.028;13.716;2024-03-06T11:18:03;10.52;;;7.97;;
47772;SDS011;33534;51.028;13.716;2024-03-06T11:23:27;8.98;;;7.75;;
47772;SDS011;33534;51.028;13.716;2024-03-06T11:28:19;9.73;;;7.68;;
47772;SDS011;33534;51.028;13.716;2024-03-06T11:31:09;8.05;;;6.78;;
47772;SDS011;33534;51.028;13.716;2024-03-06T11:33:44;7.82;;;7.00;;
47772;SDS011;33534;51.028;13.716;2024-03-06T11:36:23;9.52;;;7.80;;
47772;SDS011;33534;51.028;13.716;2024-03-06T11:39:00;10.15;;;7.45;;
47772;SDS011;33534;51.028;13.716;2024-03-06T11:41:29;9.48;;;7.25;;
47772;SDS011;33534;51.028;13.716;2024-03-06T11:44:01;8.05;;;7.25;;
47772;SDS011;33534;51.028;13.716;2024-03-06T11:46:46;9.63;;;7.38;;
47772;SDS011;33534;51.028;13.716;2024-03-06T11:49:21;9.35;;;7.63;;
47772;SDS011;33534;51.028;13.716;2024-03-06T11:51:51;9.00;;;7.88;;
47772;SDS011;33534;51.028;13.716;2024-03-06T11:54:18;7.35;;;6.50;;
47772;SDS011;33534;51.028;13.716;2024-03-06T11:56:48;8.70;;;6.60;;
47772;SDS011;33534;51.028;13.716;2024-03-06T11:59:16;9.45;;;6.85;;
47772;SDS011;33534;51.028;13.716;2024-03-06T12:01:42;9.60;;;7.40;;
47772;SDS011;33534;51.028;13.716;2024-03-06T12:04:08;10.48;;;7.53;;
47772;SDS011;33534;51.028;13.716;2024-03-06T12:06:34;8.35;;;7.05;;
47772;SDS011;33534;51.028;13.716;2024-03-06T12:09:00;8.40;;;7.38;;
47772;SDS011;33534;51.028;13.716;2024-03-06T12:11:25;7.93;;;7.00;;
47772;SDS011;33534;51.028;13.716;2024-03-06T12:13:53;8.63;;;7.20;;
47772;SDS011;33534;51.028;13.716;2024-03-06T12:16:19;8.55;;;7.65;;
47772;SDS011;33534;51.028;13.716;2024-03-06T12:18:44;8.13;;;6.80;;
47772;SDS011;33534;51.028;13.716;2024-03-06T12:21:11;7.50;;;6.70;;
47772;SDS011;33534;51.028;13.716;2024-03-06T12:23:38;8.98;;;7.25;;
47772;SDS011;33534;51.028;13.716;2024-03-06T12:26:04;7.72;;;6.40;;
47772;SDS011;33534;51.028;13.716;2024-03-06T12:28:36;7.65;;;6.80;;
47772;SDS011;33534;51.028;13.716;2024-03-06T12:31:02;7.10;;;6.40;;
47772;SDS011;33534;51.028;13.716;2024-03-06T12:33:29;7.88;;;6.60;;
47772;SDS011;33534;51.028;13.716;2024-03-06T12:36:04;9.50;;;7.15;;
47772;SDS011;33534;51.028;13.716;2024-03-06T12:38:32;8.65;;;6.97;;
47772;SDS011;33534;51.028;13.716;2024-03-06T12:40:58;8.63;;;7.25;;
47772;SDS011;33534;51.028;13.716;2024-03-06T12:43:25;8.65;;;7.15;;
47772;SDS011;33534;51.028;13.716;2024-03-06T12:45:51;7.13;;;6.43;;
47772;SDS011;33534;51.028;13.716;2024-03-06T12:48:19;7.38;;;6.13;;
47772;SDS011;33534;51.028;13.716;2024-03-06T12:50:46;11.70;;;7.70;;
47772;SDS011;33534;51.028;13.716;2024-03-06T12:53:16;7.28;;;6.53;;
47772;SDS011;33534;51.028;13.716;2024-03-06T12:55:45;7.32;;;6.35;;
47772;SDS011;33534;51.028;13.716;2024-03-06T12:58:11;8.65;;;7.00;;
47772;SDS011;33534;51.028;13.716;2024-03-06T13:00:40;7.88;;;6.78;;
47772;SDS011;33534;51.028;13.716;2024-03-06T13:03:06;7.40;;;6.70;;
47772;SDS011;33534;51.028;13.716;2024-03-06T13:05:32;9.88;;;7.35;;
47772;SDS011;33534;51.028;13.716;2024-03-06T13:07:58;7.35;;;6.40;;
47772;SDS011;33534;51.028;13.716;2024-03-06T13:10:26;7.72;;;6.93;;
47772;SDS011;33534;51.028;13.716;2024-03-06T13:12:52;7.68;;;6.88;;
47772;SDS011;33534;51.028;13.716;2024-03-06T13:15:17;7.18;;;6.45;;
47772;SDS011;33534;51.028;13.716;2024-03-06T13:17:43;7.18;;;6.20;;
47772;SDS011;33534;51.028;13.716;2024-03-06T13:20:09;7.78;;;5.90;;
47772;SDS011;33534;51.028;13.716;2024-03-06T13:22:36;6.70;;;6.03;;
47772;SDS011;33534;51.028;13.716;2024-03-06T13:25:02;7.28;;;6.30;;
47772;SDS011;33534;51.028;13.716;2024-03-06T13:27:29;6.63;;;5.85;;
47772;SDS011;33534;51.028;13.716;2024-03-06T13:29:54;7.07;;;6.32;;
47772;SDS011;33534;51.028;13.716;2024-03-06T13:32:20;7.00;;;6.30;;
47772;SDS011;33534;51.028;13.716;2024-03-06T13:34:45;7.57;;;6.75;;
47772;SDS011;33534;51.028;13.716;2024-03-06T13:37:11;7.00;;;6.30;;
47772;SDS011;33534;51.028;13.716;2024-03-06T13:39:37;8.00;;;6.25;;
47772;SDS011;33534;51.028;13.716;2024-03-06T13:42:03;7.72;;;6.93;;
47772;SDS011;33534;51.028;13.716;2024-03-06T13:44:31;8.80;;;6.40;;
47772;SDS011;33534;51.028;13.716;2024-03-06T13:46:56;9.05;;;7.07;;
47772;SDS011;33534;51.028;13.716;2024-03-06T13:49:33;9.50;;;6.63;;
47772;SDS011;33534;51.028;13.716;2024-03-06T13:52:06;10.10;;;6.53;;
47772;SDS011;33534;51.028;13.716;2024-03-06T13:54:38;8.45;;;6.65;;
47772;SDS011;33534;51.028;13.716;2024-03-06T13:57:05;12.93;;;6.53;;
47772;SDS011;33534;51.028;13.716;2024-03-06T13:59:34;11.40;;;7.00;;
47772;SDS011;33534;51.028;13.716;2024-03-06T14:02:00;8.43;;;6.30;;
47772;SDS011;33534;51.028;13.716;2024-03-06T14:04:27;9.40;;;7.03;;
47772;SDS011;33534;51.028;13.716;2024-03-06T14:06:53;8.85;;;6.90;;
47772;SDS011;33534;51.028;13.716;2024-03-06T14:09:19;10.02;;;6.90;;
47772;SDS011;33534;51.028;13.716;2024-03-06T14:11:45;10.10;;;7.00;;
47772;SDS011;33534;51.028;13.716;2024-03-06T14:14:10;9.48;;;6.90;;
47772;SDS011;33534;51.028;13.716;2024-03-06T14:16:36;8.45;;;6.65;;